Saturday, November 18, 2017, 11:56 PM EST
Back to Local

KELM, Elmira County Airport

Location: Horseheads, NY, United States Lat: 42.167
Local Time: 11:56 PM EST ( 4:56 GMT) Lon: -76.9
Time Zone: US/Eastern Elev: 954 ft

Show me the last for .
Show Decoded

2017-11-18 22:53 METAR KELM 190353Z 21012KT 10SM -RA SCT080 BKN100 09/08 A2922 RMK AO2 PRESFR
                 SLP899 P0001 T00890083 $ =
2017-11-18 21:53 METAR KELM 190253Z 22008KT 9SM -RA BKN080 OVC095 08/06 A2929 RMK AO2 SLP922
                 P0002 60003 T00830061 56018 $ =
2017-11-18 21:18 METAR KELM 190218Z VRB04KT 5SM -RA BR SCT023 BKN043 OVC050 08/06 A2930 RMK AO2
                 P0001 T00780056 $ =
2017-11-18 20:53 METAR KELM 190153Z VRB06KT 10SM -RA BKN024 OVC043 08/05 A2932 RMK AO2 RAB05
                 SLP931 P0000 T00780050 $ =
2017-11-18 20:49 METAR KELM 190149Z 25004KT 10SM -RA BKN024 OVC043 08/05 A2932 RMK AO2 RAB05
                 P0000 $ =
2017-11-18 19:53 METAR KELM 190053Z 20003KT 10SM FEW023 OVC045 07/05 A2935 RMK AO2 RAE36 SLP944
                 P0001 T00720050 =
2017-11-18 19:13 METAR KELM 190013Z 22005KT 8SM RA FEW018 SCT022 OVC043 07/05 A2938 RMK AO2 P0001
                 T00720050 =
2017-11-18 18:53 METAR KELM 182353Z 19007KT 130V230 10SM -RA BKN016 OVC043 07/05 A2939 RMK AO2
                 RAB14 SLP958 P0000 60010 T00670050 10072 20061 56019 =
2017-11-18 18:00 METAR KELM 182300Z 16005KT 10SM OVC014 07/05 A2941 RMK AO2 T00670050 =
2017-11-18 17:53 METAR KELM 182253Z 21009KT 10SM OVC015 07/05 A2942 RMK AO2 RAE47 SLP967 P0000
                 T00720050 =
2017-11-18 16:53 METAR KELM 182153Z 19007KT 7SM -RA OVC016 07/06 A2945 RMK AO2 SLP979 P0009
                 T00720056 =
2017-11-18 16:21 METAR KELM 182121Z 19006KT 4SM RA BR OVC014 07/05 A2946 RMK AO2 P0004 T00670050
                 =
2017-11-18 15:53 METAR KELM 182053Z 17004KT 5SM RA OVC016 07/04 A2948 RMK AO2 RAB32 SLP988 P0001
                 60001 T00720044 56027 =
2017-11-18 14:53 METAR KELM 181953Z 16004KT 10SM OVC017 07/04 A2949 RMK AO2 RAE11 SLP994 P0000
                 T00720044 =
2017-11-18 13:53 METAR KELM 181853Z 21007KT 10SM -RA OVC018 07/04 A2954 RMK AO2 RAB18 SLP009
                 P0000 T00670039 =
2017-11-18 12:53 METAR KELM 181753Z 23007KT 10SM OVC022 07/03 A2956 RMK AO2 SLP015 60000
                 T00720033 10072 21006 56036 =
2017-11-18 11:53 METAR KELM 181653Z 23004KT 10SM OVC024 06/02 A2959 RMK AO2 RAB01E26 SLP027 P0000
                 T00610017 =
2017-11-18 11:40 METAR KELM 181640Z 23010KT 10SM BKN024 OVC032 07/01 A2960 RMK AO2 RAB01E26 P0000
                 T00670011 =
2017-11-18 10:53 METAR KELM 181553Z 21009KT 10SM OVC031 07/M01 A2963 RMK AO2 SLP041 T00671006 =
2017-11-18 09:53 METAR KELM 181453Z 21006KT 10SM BKN048 OVC060 05/01 A2967 RMK AO2 RAE08B31E46
                 SLP053 P0000 60000 T00500006 58034 =
2017-11-18 08:53 METAR KELM 181353Z 00000KT 10SM -RA OVC070 04/M01 A2969 RMK AO2 RAB28 SLP060
                 P0000 T00391006 =
2017-11-18 07:53 METAR KELM 181253Z 00000KT 10SM SCT080 OVC095 01/M02 A2975 RMK AO2 SLP083
                 T00061017 =
2017-11-18 06:53 METAR KELM 181153Z 00000KT 10SM BKN100 BKN120 M01/M03 A2977 RMK AO2 SLP090
                 T10061028 11006 21044 56026 =
2017-11-18 05:53 METAR KELM 181053Z AUTO 00000KT 10SM CLR M02/M03 A2978 RMK AO2 SLP096 T10171028
                 =
2017-11-18 04:53 METAR KELM 180953Z AUTO 02004KT 10SM CLR M03/M04 A2981 RMK AO2 SLP105 T10281044
                 =
2017-11-18 03:53 METAR KELM 180853Z AUTO 00000KT 10SM CLR M03/M05 A2985 RMK AO2 SLP117 T10281050
                 58031 =
2017-11-18 02:53 METAR KELM 180753Z AUTO 00000KT 10SM CLR M04/M06 A2989 RMK AO2 SLP129 T10441056
                 =
2017-11-18 01:53 METAR KELM 180653Z AUTO 00000KT 10SM CLR M03/M05 A2990 RMK AO2 SLP136 T10331050
                 =
2017-11-18 00:53 METAR KELM 180553Z AUTO 00000KT 10SM CLR M02/M03 A2994 RMK AO2 SLP147 T10171033
                 10006 21033 58029 =

Support USWX by starting your Amazon purchase here.